createdAt,value
2022-12-27T00:02:22.079Z,96682.16
2022-12-27T00:04:50.133Z,96687.59
2022-12-27T00:07:18.989Z,96697.19
2022-12-27T00:09:46.642Z,96707.25
2022-12-27T00:12:14.110Z,96713.19
2022-12-27T00:14:41.693Z,96728.28
2022-12-27T00:17:09.162Z,96746.38
2022-12-27T00:19:36.667Z,96748.09
2022-12-27T00:22:05.275Z,96769.56
2022-12-27T00:24:35.239Z,96768.44
2022-12-27T00:27:02.937Z,96782.41
2022-12-27T00:29:30.591Z,96776.19
2022-12-27T00:31:58.156Z,96773.66
2022-12-27T00:34:25.680Z,96785.22
2022-12-27T00:36:53.149Z,96771.81
2022-12-27T00:39:20.668Z,96798.72
2022-12-27T00:41:49.546Z,96791.28
2022-12-27T00:44:17.262Z,96790.78
2022-12-27T00:46:44.827Z,96796.97
2022-12-27T00:49:12.399Z,96807.22
2022-12-27T00:51:39.878Z,96820.69
2022-12-27T00:54:07.844Z,96837.28
2022-12-27T00:56:35.388Z,96825.47
2022-12-27T00:59:05.747Z,96813.69
2022-12-27T01:01:36.203Z,96832.03
2022-12-27T01:04:05.378Z,96835.28
2022-12-27T01:06:35.316Z,96838.88
2022-12-27T01:09:03.757Z,96855.09
2022-12-27T01:11:31.986Z,96860.75
2022-12-27T01:14:00.752Z,96854.03
2022-12-27T01:16:31.187Z,96851.13
2022-12-27T01:18:59.940Z,96848.06
2022-12-27T01:21:30.534Z,96866.88
2022-12-27T01:23:58.140Z,96871.72
2022-12-27T01:26:26.018Z,96883.78
2022-12-27T01:28:54.531Z,96872.69
2022-12-27T01:31:24.680Z,96885.56
2022-12-27T01:33:56.947Z,96896.81
2022-12-27T01:36:26.023Z,96898.94
2022-12-27T01:38:53.549Z,96915.19
2022-12-27T01:41:41.877Z,96909.13
2022-12-27T01:44:49.431Z,96927.69
2022-12-27T01:47:22.914Z,96931.34
2022-12-27T01:49:58.947Z,96930.09
2022-12-27T01:52:34.440Z,96939.53
2022-12-27T01:55:09.872Z,96936.09
2022-12-27T01:57:37.731Z,96940.06
2022-12-27T02:00:12.186Z,96940.28
2022-12-27T02:02:40.499Z,96932.06
2022-12-27T02:05:13.588Z,96952.50
2022-12-27T02:07:48.733Z,96968.25
2022-12-27T02:10:17.244Z,96965.28
2022-12-27T02:12:44.779Z,96969.22
2022-12-27T02:15:12.405Z,96983.28
2022-12-27T02:17:39.929Z,96979.72
2022-12-27T02:20:13.484Z,96997.56
2022-12-27T02:23:34.798Z,97003.47
2022-12-27T02:26:46.579Z,96998.28
2022-12-27T02:29:23.721Z,97007.69
2022-12-27T02:32:00.197Z,97004.03
2022-12-27T02:34:38.311Z,97017.97
2022-12-27T02:37:11.012Z,97018.41
2022-12-27T02:39:43.608Z,97023.84
2022-12-27T02:42:30.210Z,97021.41
2022-12-27T02:45:16.787Z,97014.81
2022-12-27T02:48:03.719Z,97025.22
2022-12-27T02:51:03.353Z,97031.53
2022-12-27T02:53:40.331Z,97024.91
2022-12-27T02:56:39.810Z,97046.91
2022-12-27T02:59:23.980Z,97048.72
2022-12-27T03:02:21.054Z,97063.50
2022-12-27T03:05:03.947Z,97073.97
2022-12-27T03:07:38.426Z,97069.78
2022-12-27T03:10:42.051Z,97085.59
2022-12-27T03:13:37.983Z,97056.28
2022-12-27T03:16:19.930Z,97062.13
2022-12-27T03:19:00.066Z,97059.59
2022-12-27T03:21:49.662Z,97070.81
2022-12-27T03:24:37.413Z,97070.63
2022-12-27T03:27:10.767Z,97071.38
2022-12-27T03:29:56.747Z,97062.75
2022-12-27T03:32:42.680Z,97082.75
2022-12-27T03:35:17.672Z,97079.28
2022-12-27T03:38:05.709Z,97098.72
2022-12-27T03:41:01.776Z,97097.50
2022-12-27T03:43:29.773Z,97105.69
2022-12-27T03:46:17.081Z,97105.69
2022-12-27T03:49:04.312Z,97111.13
2022-12-27T03:51:38.694Z,97105.69
2022-12-27T03:54:10.321Z,97116.53
2022-12-27T03:56:38.806Z,97124.13
2022-12-27T03:59:06.701Z,97119.06
2022-12-27T04:01:34.261Z,97125.53
2022-12-27T04:04:01.871Z,97128.63
2022-12-27T04:06:29.358Z,97141.44
2022-12-27T04:09:15.953Z,97136.34
2022-12-27T04:12:01.009Z,97131.78
2022-12-27T04:14:46.321Z,97130.63
2022-12-27T04:17:31.374Z,97140.56
2022-12-27T04:20:16.673Z,97145.44
2022-12-27T04:23:01.522Z,97155.06
2022-12-27T04:25:48.385Z,97152.53
2022-12-27T04:28:33.831Z,97159.44
2022-12-27T04:31:18.823Z,97157.00
2022-12-27T04:34:04.258Z,97173.34
2022-12-27T04:36:31.787Z,97163.06
2022-12-27T04:38:59.288Z,97175.94
2022-12-27T04:41:45.621Z,97158.78
2022-12-27T04:44:31.039Z,97159.91
2022-12-27T04:47:16.620Z,97170.31
2022-12-27T04:50:01.811Z,97163.13
2022-12-27T04:52:46.979Z,97167.94
2022-12-27T04:55:20.408Z,97169.25
2022-12-27T04:57:49.709Z,97171.84
2022-12-27T05:00:35.952Z,97183.50
2022-12-27T05:03:06.653Z,97171.84
2022-12-27T05:05:35.524Z,97180.03
2022-12-27T05:08:21.558Z,97179.28
2022-12-27T05:11:06.617Z,97184.94
2022-12-27T05:13:53.392Z,97189.38
2022-12-27T05:16:21.039Z,97183.28
2022-12-27T05:18:48.584Z,97183.06
2022-12-27T05:21:16.068Z,97188.34
2022-12-27T05:24:05.378Z,97186.38
2022-12-27T05:26:34.071Z,97186.56
2022-12-27T05:29:03.034Z,97185.34
2022-12-27T05:31:30.624Z,97194.78
2022-12-27T05:33:58.853Z,97196.94
2022-12-27T05:36:26.599Z,97198.94
2022-12-27T05:38:54.199Z,97204.63
2022-12-27T05:41:21.687Z,97215.09
2022-12-27T05:43:49.357Z,97212.53
2022-12-27T05:46:20.463Z,97215.44
2022-12-27T05:48:48.697Z,97219.72
2022-12-27T05:51:18.247Z,97216.13
2022-12-27T05:53:46.156Z,97213.91
2022-12-27T05:56:16.642Z,97208.31
2022-12-27T05:58:44.774Z,97211.09
2022-12-27T06:01:14.973Z,97215.25
2022-12-27T06:03:44.200Z,97202.41
2022-12-27T06:06:12.303Z,97210.53
2022-12-27T06:08:40.632Z,97210.78
2022-12-27T06:11:10.104Z,97208.59
2022-12-27T06:13:38.665Z,97217.22
2022-12-27T06:16:09.113Z,97217.28
2022-12-27T06:18:38.733Z,97210.16
2022-12-27T06:21:10.849Z,97230.81
2022-12-27T06:23:40.523Z,97234.13
2022-12-27T06:26:09.077Z,97236.75
2022-12-27T06:28:36.580Z,97245.84
2022-12-27T06:31:04.983Z,97246.34
2022-12-27T06:33:32.847Z,97254.72
2022-12-27T06:36:00.370Z,97254.31
2022-12-27T06:38:29.242Z,97263.22
2022-12-27T06:41:01.704Z,97265.75
2022-12-27T06:43:29.222Z,97259.84
2022-12-27T06:45:57.710Z,97267.03
2022-12-27T06:48:25.761Z,97263.16
2022-12-27T06:50:53.431Z,97268.09
2022-12-27T06:53:21.024Z,97272.50
2022-12-27T06:55:49.947Z,97273.53
2022-12-27T06:58:17.664Z,97268.66
2022-12-27T07:00:45.146Z,97261.47
2022-12-27T07:03:12.697Z,97262.38
2022-12-27T07:05:40.414Z,97262.22
2022-12-27T07:08:07.929Z,97275.31
2022-12-27T07:10:37.227Z,97282.97
2022-12-27T07:13:06.061Z,97276.75
2022-12-27T07:15:33.565Z,97278.91
2022-12-27T07:18:01.048Z,97274.28
2022-12-27T07:20:28.581Z,97282.66
2022-12-27T07:22:58.817Z,97280.91
2022-12-27T07:25:26.368Z,97298.16
2022-12-27T07:27:54.342Z,97296.13
2022-12-27T07:30:23.443Z,97293.50
2022-12-27T07:32:50.960Z,97296.13
2022-12-27T07:35:18.479Z,97289.72
2022-12-27T07:37:45.970Z,97288.56
2022-12-27T07:40:13.517Z,97296.66
2022-12-27T07:42:41.076Z,97307.81
2022-12-27T07:45:09.629Z,97299.28
2022-12-27T07:47:38.449Z,97292.34
2022-12-27T07:50:06.675Z,97302.16
2022-12-27T07:52:34.163Z,97303.56
2022-12-27T07:55:01.694Z,97304.59
2022-12-27T07:57:29.609Z,97302.47
2022-12-27T07:59:57.090Z,97306.81
2022-12-27T08:02:24.663Z,97305.63
2022-12-27T08:04:53.590Z,97308.59
2022-12-27T08:07:21.412Z,97315.31
2022-12-27T08:09:49.838Z,97311.09
2022-12-27T08:12:17.565Z,97312.09
2022-12-27T08:14:45.651Z,97311.31
2022-12-27T08:17:17.074Z,97316.84
2022-12-27T08:19:44.581Z,97311.97
2022-12-27T08:22:13.432Z,97308.47
2022-12-27T08:24:41.571Z,97312.59
2022-12-27T08:27:09.450Z,97310.84
2022-12-27T08:29:37.735Z,97315.59
2022-12-27T08:32:06.023Z,97322.56
2022-12-27T08:34:33.499Z,97328.41
2022-12-27T08:37:00.972Z,97329.50
2022-12-27T08:39:30.174Z,97338.13
2022-12-27T08:41:57.685Z,97333.00
2022-12-27T08:44:25.532Z,97335.72
2022-12-27T08:46:53.037Z,97334.72
2022-12-27T08:49:20.526Z,97337.00
2022-12-27T08:51:47.999Z,97328.94
2022-12-27T08:54:15.484Z,97322.94
2022-12-27T08:56:44.303Z,97324.94
2022-12-27T08:59:11.790Z,97328.00
2022-12-27T09:01:39.364Z,97330.28
2022-12-27T09:04:06.980Z,97339.72
2022-12-27T09:06:34.492Z,97334.22
2022-12-27T09:09:02.028Z,97334.91
2022-12-27T09:11:31.298Z,97336.81
2022-12-27T09:14:02.275Z,97343.81
2022-12-27T09:16:30.949Z,97335.41
2022-12-27T09:18:59.966Z,97340.38
2022-12-27T09:21:31.546Z,97332.97
2022-12-27T09:23:59.680Z,97345.28
2022-12-27T09:26:29.237Z,97337.94
2022-12-27T09:28:57.789Z,97334.34
2022-12-27T09:31:27.309Z,97345.63
2022-12-27T09:33:55.099Z,97345.56
2022-12-27T09:36:24.611Z,97342.16
2022-12-27T09:38:53.513Z,97341.25
2022-12-27T09:42:26.012Z,97335.53
2022-12-27T09:44:22.983Z,97338.75
2022-12-27T09:46:59.050Z,97332.19
2022-12-27T09:49:32.011Z,97332.72
2022-12-27T09:52:03.524Z,97337.97
2022-12-27T09:54:38.124Z,97339.09
2022-12-27T09:57:22.299Z,97337.34
2022-12-27T09:59:52.547Z,97332.19
2022-12-27T10:02:23.659Z,97339.03
2022-12-27T10:05:19.118Z,97336.78
2022-12-27T10:07:54.169Z,97336.72
2022-12-27T10:10:33.803Z,97343.41
2022-12-27T10:13:11.205Z,97340.53
2022-12-27T10:15:48.315Z,97328.09
2022-12-27T10:18:33.429Z,97339.69
2022-12-27T10:21:11.425Z,97334.84
2022-12-27T10:23:43.032Z,97330.38
2022-12-27T10:26:14.757Z,97331.03
2022-12-27T10:28:44.703Z,97332.22
2022-12-27T10:31:15.833Z,97339.13
2022-12-27T10:33:45.795Z,97337.84
2022-12-27T10:36:16.127Z,97326.06
2022-12-27T10:38:43.835Z,97332.00
2022-12-27T10:41:27.351Z,97321.16
2022-12-27T10:43:56.178Z,97318.66
2022-12-27T10:46:32.504Z,97315.81
2022-12-27T10:49:20.786Z,97318.59
2022-12-27T10:51:49.724Z,97324.88
2022-12-27T10:54:23.231Z,97314.66
2022-12-27T10:56:50.755Z,97315.31
2022-12-27T10:59:20.148Z,97314.56
2022-12-27T11:01:49.967Z,97306.97
2022-12-27T11:04:21.817Z,97298.59
2022-12-27T11:06:51.486Z,97298.88
2022-12-27T11:09:25.837Z,97300.81
2022-12-27T11:11:53.406Z,97301.00
2022-12-27T11:14:22.051Z,97304.91
2022-12-27T11:16:50.162Z,97301.25
2022-12-27T11:19:26.733Z,97299.09
2022-12-27T11:21:55.739Z,97302.75
2022-12-27T11:24:23.835Z,97301.31
2022-12-27T11:26:54.532Z,97299.31
2022-12-27T11:29:25.605Z,97297.00
2022-12-27T11:31:54.722Z,97297.50
2022-12-27T11:34:28.668Z,97290.47
2022-12-27T11:37:03.470Z,97288.31
2022-12-27T11:39:45.352Z,97284.03
2022-12-27T11:42:26.605Z,97269.88
2022-12-27T11:45:04.024Z,97272.47
2022-12-27T11:47:37.153Z,97277.50
2022-12-27T11:50:23.232Z,97270.81
2022-12-27T11:53:09.869Z,97259.06
2022-12-27T11:56:11.552Z,97273.63
2022-12-27T11:59:19.973Z,97274.41
2022-12-27T12:02:08.837Z,97265.72
2022-12-27T12:05:15.947Z,97267.25
2022-12-27T12:08:01.458Z,97268.91
2022-12-27T12:10:40.266Z,97271.16
2022-12-27T12:13:19.746Z,97281.47
2022-12-27T12:16:27.037Z,97272.69
2022-12-27T12:19:08.710Z,97274.50
2022-12-27T12:21:41.405Z,97278.28
2022-12-27T12:24:37.376Z,97280.88
2022-12-27T12:27:18.917Z,97275.34
2022-12-27T12:30:02.610Z,97258.50
2022-12-27T12:32:43.999Z,97263.09
2022-12-27T12:35:28.619Z,97265.16
2022-12-27T12:38:19.841Z,97253.63
2022-12-27T12:41:08.934Z,97255.94
2022-12-27T12:44:17.082Z,97255.59
2022-12-27T12:46:50.628Z,97249.00
2022-12-27T12:49:40.949Z,97248.34
2022-12-27T12:52:26.286Z,97237.06
2022-12-27T12:55:15.547Z,97246.28
2022-12-27T12:57:57.809Z,97242.84
2022-12-27T13:00:36.229Z,97245.22
2022-12-27T13:03:45.845Z,97247.16
2022-12-27T13:06:26.369Z,97249.06
2022-12-27T13:09:03.559Z,97237.06
2022-12-27T13:11:49.393Z,97246.28
2022-12-27T13:14:38.365Z,97244.25
2022-12-27T13:17:16.452Z,97238.56
2022-12-27T13:20:07.946Z,97239.06
2022-12-27T13:22:47.305Z,97233.56
2022-12-27T13:25:22.906Z,97242.69
2022-12-27T13:27:55.010Z,97253.53
2022-12-27T13:30:25.999Z,97251.22
2022-12-27T13:33:22.841Z,97240.78
2022-12-27T13:36:04.602Z,97242.31
2022-12-27T13:38:46.037Z,97248.97
2022-12-27T13:41:33.457Z,97247.63
2022-12-27T13:44:33.622Z,97250.38
2022-12-27T13:47:22.928Z,97249.41
2022-12-27T13:50:32.214Z,97242.59
2022-12-27T13:53:21.239Z,97241.91
2022-12-27T13:55:56.484Z,97237.13
2022-12-27T13:58:59.738Z,97252.88
2022-12-27T14:01:46.962Z,97253.97
2022-12-27T14:04:44.839Z,97253.19
2022-12-27T14:07:27.726Z,97257.00
2022-12-27T14:10:09.928Z,97260.31
2022-12-27T14:12:57.209Z,97267.47
2022-12-27T14:15:30.965Z,97266.38
2022-12-27T14:18:15.323Z,97269.28
2022-12-27T14:20:57.530Z,97275.47
2022-12-27T14:23:39.512Z,97268.25
2022-12-27T14:26:51.619Z,97272.56
2022-12-27T14:30:00.507Z,97277.84
2022-12-27T14:32:54.272Z,97273.22
2022-12-27T14:35:56.627Z,97280.59
2022-12-27T14:38:47.880Z,97281.84
2022-12-27T14:41:48.116Z,97276.16
2022-12-27T14:44:45.597Z,97276.56
2022-12-27T14:47:46.943Z,97270.19
2022-12-27T14:50:35.111Z,97281.44
2022-12-27T14:53:31.016Z,97277.09
2022-12-27T14:56:08.257Z,97276.06
2022-12-27T14:59:01.912Z,97277.75
2022-12-27T15:01:44.474Z,97269.19
2022-12-27T15:04:35.702Z,97269.44
2022-12-27T15:07:37.505Z,97276.34
2022-12-27T15:10:15.152Z,97278.25
2022-12-27T15:12:52.451Z,97273.84
2022-12-27T15:15:37.160Z,97271.59
2022-12-27T15:18:30.523Z,97273.00
2022-12-27T15:21:16.551Z,97283.94
2022-12-27T15:23:51.826Z,97269.44
2022-12-27T15:26:30.083Z,97279.91
2022-12-27T15:29:10.998Z,97283.53
2022-12-27T15:31:50.105Z,97290.91
2022-12-27T15:34:34.794Z,97288.91
2022-12-27T15:37:02.894Z,97288.16
2022-12-27T15:39:50.460Z,97287.69
2022-12-27T15:42:48.610Z,97280.56
2022-12-27T15:45:31.340Z,97282.03
2022-12-27T15:48:30.882Z,97283.41
2022-12-27T15:51:07.652Z,97283.63
2022-12-27T15:53:48.767Z,97281.91
2022-12-27T15:56:36.942Z,97279.84
2022-12-27T15:59:35.972Z,97272.81
2022-12-27T16:02:42.053Z,97268.78
2022-12-27T16:05:35.221Z,97278.25
2022-12-27T16:08:35.301Z,97272.13
2022-12-27T16:11:05.694Z,97274.16
2022-12-27T16:13:41.801Z,97278.34
2022-12-27T16:16:28.060Z,97273.53
2022-12-27T16:19:13.881Z,97281.41
2022-12-27T16:21:44.420Z,97274.56
2022-12-27T16:24:19.768Z,97274.13
2022-12-27T16:27:01.573Z,97283.88
2022-12-27T16:29:32.450Z,97270.91
2022-12-27T16:32:20.593Z,97274.56
2022-12-27T16:34:54.191Z,97275.41
2022-12-27T16:37:29.008Z,97272.41
2022-12-27T16:40:18.099Z,97278.94
2022-12-27T16:43:28.444Z,97269.63
2022-12-27T16:46:06.737Z,97269.09
2022-12-27T16:48:46.933Z,97262.53
2022-12-27T16:51:22.049Z,97259.16
2022-12-27T16:54:05.022Z,97266.44
2022-12-27T16:56:34.105Z,97263.03
2022-12-27T16:59:01.859Z,97261.72
2022-12-27T17:01:46.697Z,97269.69
2022-12-27T17:04:49.767Z,97272.66
2022-12-27T17:07:44.322Z,97272.94
2022-12-27T17:10:34.042Z,97273.22
2022-12-27T17:13:09.128Z,97281.41
2022-12-27T17:15:44.890Z,97280.38
2022-12-27T17:18:27.662Z,97274.59
2022-12-27T17:21:03.060Z,97282.94
2022-12-27T17:23:32.235Z,97279.00
2022-12-27T17:26:20.685Z,97273.31
2022-12-27T17:28:55.517Z,97279.03
2022-12-27T17:31:31.457Z,97284.97
2022-12-27T17:34:07.673Z,97282.88
2022-12-27T17:36:46.018Z,97283.16
2022-12-27T17:39:27.431Z,97273.53
2022-12-27T17:42:20.014Z,97274.22
2022-12-27T17:45:12.427Z,97280.00
2022-12-27T17:48:07.524Z,97277.56
2022-12-27T17:50:37.702Z,97271.75
2022-12-27T17:53:34.399Z,97270.28
2022-12-27T17:56:31.827Z,97263.97
2022-12-27T17:59:04.461Z,97253.31
2022-12-27T18:01:34.556Z,97257.09
2022-12-27T18:04:04.909Z,97241.81
2022-12-27T18:06:32.739Z,97246.38
2022-12-27T18:09:00.330Z,97240.44
2022-12-27T18:11:32.592Z,97240.50
2022-12-27T18:14:00.689Z,97244.28
2022-12-27T18:16:37.239Z,97246.31
2022-12-27T18:19:05.427Z,97242.00
2022-12-27T18:21:33.254Z,97242.09
2022-12-27T18:24:00.733Z,97242.66
2022-12-27T18:26:37.442Z,97247.94
2022-12-27T18:29:05.767Z,97244.19
2022-12-27T18:31:37.097Z,97243.31
2022-12-27T18:34:08.292Z,97250.22
2022-12-27T18:36:41.092Z,97251.72
2022-12-27T18:39:18.915Z,97240.47
2022-12-27T18:41:51.416Z,97235.81
2022-12-27T18:44:27.068Z,97237.19
2022-12-27T18:46:57.834Z,97231.41
2022-12-27T18:49:27.406Z,97223.91
2022-12-27T18:51:55.666Z,97224.63
2022-12-27T18:54:33.259Z,97219.50
2022-12-27T18:57:04.108Z,97216.06
2022-12-27T18:59:33.135Z,97213.75
2022-12-27T19:02:03.712Z,97211.50
2022-12-27T19:04:32.714Z,97211.28
2022-12-27T19:07:10.467Z,97214.25
2022-12-27T19:09:42.471Z,97207.56
2022-12-27T19:12:23.554Z,97206.84
2022-12-27T19:14:51.548Z,97203.94
2022-12-27T19:17:22.678Z,97198.31
2022-12-27T19:19:52.492Z,97202.06
2022-12-27T19:22:37.009Z,97211.34
2022-12-27T19:25:07.554Z,97214.00
2022-12-27T19:27:36.355Z,97212.50
2022-12-27T19:30:04.299Z,97208.19
2022-12-27T19:32:33.651Z,97211.75
2022-12-27T19:35:04.037Z,97203.72
2022-12-27T19:37:33.340Z,97208.38
2022-12-27T19:40:01.029Z,97202.09
2022-12-27T19:42:31.175Z,97198.06
2022-12-27T19:45:00.011Z,97195.19
2022-12-27T19:47:27.911Z,97191.25
2022-12-27T19:49:55.399Z,97187.22
2022-12-27T19:52:24.843Z,97189.84
2022-12-27T19:54:57.581Z,97186.88
2022-12-27T19:57:25.082Z,97189.56
2022-12-27T19:59:52.790Z,97186.66
2022-12-27T20:02:23.369Z,97186.84
2022-12-27T20:04:51.077Z,97187.47
2022-12-27T20:07:22.720Z,97198.81
2022-12-27T20:09:50.306Z,97192.72
2022-12-27T20:12:17.887Z,97196.72
2022-12-27T20:14:45.486Z,97191.63
2022-12-27T20:17:12.989Z,97193.44
2022-12-27T20:19:41.882Z,97196.16
2022-12-27T20:22:09.394Z,97192.94
2022-12-27T20:24:37.781Z,97192.31
2022-12-27T20:27:05.446Z,97194.41
2022-12-27T20:29:33.014Z,97194.34
2022-12-27T20:32:00.661Z,97189.28
2022-12-27T20:34:28.199Z,97196.13
2022-12-27T20:36:58.159Z,97198.09
2022-12-27T20:39:25.628Z,97191.16
2022-12-27T20:41:53.103Z,97183.19
2022-12-27T20:44:20.602Z,97181.19
2022-12-27T20:46:48.533Z,97185.13
2022-12-27T20:49:16.029Z,97179.78
2022-12-27T20:51:43.506Z,97181.34
2022-12-27T20:54:15.065Z,97166.13
2022-12-27T20:56:42.602Z,97167.47
2022-12-27T20:59:10.092Z,97165.94
2022-12-27T21:01:37.682Z,97158.59
2022-12-27T21:04:06.166Z,97168.91
2022-12-27T21:06:33.838Z,97174.31
2022-12-27T21:09:01.296Z,97165.88
2022-12-27T21:11:32.148Z,97159.25
2022-12-27T21:14:01.383Z,97164.38
2022-12-27T21:16:30.402Z,97160.38
2022-12-27T21:18:58.076Z,97164.28
2022-12-27T21:21:28.791Z,97167.31
2022-12-27T21:23:57.255Z,97157.00
2022-12-27T21:26:26.627Z,97162.63
2022-12-27T21:28:56.486Z,97157.28
2022-12-27T21:31:24.280Z,97158.72
2022-12-27T21:33:52.137Z,97155.41
2022-12-27T21:36:21.645Z,97156.75
2022-12-27T21:38:49.497Z,97158.91
2022-12-27T21:41:18.617Z,97150.31
2022-12-27T21:43:47.416Z,97149.59
2022-12-27T21:46:18.430Z,97154.22
2022-12-27T21:48:47.771Z,97150.91
2022-12-27T21:51:18.318Z,97143.50
2022-12-27T21:53:46.836Z,97152.78
2022-12-27T21:56:15.782Z,97153.06
2022-12-27T21:58:44.734Z,97147.34
2022-12-27T22:01:14.230Z,97141.19
2022-12-27T22:03:45.216Z,97136.31
2022-12-27T22:06:14.519Z,97138.56
2022-12-27T22:08:43.107Z,97128.59
2022-12-27T22:11:11.067Z,97127.78
2022-12-27T22:13:38.937Z,97134.09
2022-12-27T22:16:08.608Z,97138.34
2022-12-27T22:18:39.686Z,97145.31
2022-12-27T22:21:09.734Z,97138.81
2022-12-27T22:23:38.916Z,97140.03
2022-12-27T22:26:10.980Z,97146.44
2022-12-27T22:28:38.675Z,97135.25
2022-12-27T22:31:06.630Z,97139.00
2022-12-27T22:33:35.105Z,97132.25
2022-12-27T22:36:03.946Z,97134.06
2022-12-27T22:38:33.545Z,97130.88
2022-12-27T22:41:05.814Z,97123.78
2022-12-27T22:43:33.294Z,97115.78
2022-12-27T22:46:00.805Z,97103.81
2022-12-27T22:48:28.306Z,97105.66
2022-12-27T22:50:55.794Z,97098.34
2022-12-27T22:53:23.659Z,97100.31
2022-12-27T22:55:52.484Z,97095.78
2022-12-27T22:58:19.964Z,97100.78
2022-12-27T23:00:47.442Z,97110.22
2022-12-27T23:03:14.948Z,97112.13
2022-12-27T23:05:42.467Z,97098.47
2022-12-27T23:08:09.943Z,97103.06
2022-12-27T23:10:37.487Z,97099.91
2022-12-27T23:13:06.343Z,97107.50
2022-12-27T23:15:33.835Z,97097.41
2022-12-27T23:18:01.326Z,97100.09
2022-12-27T23:20:28.812Z,97094.22
2022-12-27T23:22:56.305Z,97094.03
2022-12-27T23:25:23.776Z,97090.50
2022-12-27T23:27:51.313Z,97090.00
2022-12-27T23:30:22.840Z,97086.59
2022-12-27T23:32:50.338Z,97086.50
2022-12-27T23:35:18.053Z,97071.13
2022-12-27T23:37:45.555Z,97071.53
2022-12-27T23:40:13.388Z,97073.28
2022-12-27T23:42:40.893Z,97072.19
2022-12-27T23:45:09.719Z,97062.94
2022-12-27T23:47:38.656Z,97057.16
2022-12-27T23:50:06.939Z,97069.94
2022-12-27T23:52:34.443Z,97067.03
2022-12-27T23:55:02.240Z,97068.16
2022-12-27T23:57:29.717Z,97061.03
2022-12-27T23:59:57.187Z,97064.22
